Jacksonville, Illinois
Current Conditions -  °F | °C
As of 3:15 AM on Friday 19 Dec 2014 (Local Time) from KIJX Reporting Station
Overcast Overcast  
Wind Chill: 31°   Ceiling: 3500
Heat Index: 31°   Visibility: 7mi
Dew Point: 26°   Wind: 3mph
Humidity: 84%   Direction: 10°N
Pressure: 30.29"   Gusts: NA
Location:  39.75°N, 90.23°W
Report Text: KIJX 190915Z AUTO 01003KT 7SM OVC035 M01/M03 A3029 RMK AO2 T10081032
Loading
Personal Weather Stations






























Interactive Weather Map New forecast layout! Learn more

10-Day Weather Forecast

Advertisements
Track Severe Weather on mobile